Time;durP1;ratioP1;P1;durP2;ratioP2;P2;SDS_P1;SDS_P2;PMS_P1;PMS_P2;Temp;Humidity;BMP_temperature;BMP_pressure;BME280_temperature;BME280_humidity;BME280_pressure;Samples;Min_cycle;Max_cycle;Signal;HPM_P1;HPM_P2
2021/03/18 00:00:45;;;;;;;8.90;7.20;;;2.80;99.90;;;;;;5052443;28;20239;-41
2021/03/18 00:03:14;;;;;;;8.13;7.10;;;2.80;99.90;;;;;;5052338;28;20657;-41
2021/03/18 00:05:42;;;;;;;9.35;7.75;;;2.80;99.90;;;;;;5052400;28;20214;-41
2021/03/18 00:08:09;;;;;;;8.63;7.73;;;2.80;99.90;;;;;;5052198;28;20263;-41
2021/03/18 00:10:36;;;;;;;8.97;7.57;;;2.90;99.90;;;;;;5051956;28;20612;-40
2021/03/18 00:13:03;;;;;;;12.37;8.87;;;3.00;99.90;;;;;;5052216;28;20250;-40
2021/03/18 00:15:31;;;;;;;9.73;7.70;;;3.00;99.90;;;;;;5052050;28;20299;-40
2021/03/18 00:17:59;;;;;;;9.07;7.97;;;3.00;99.90;;;;;;5052140;28;20310;-42
2021/03/18 00:20:27;;;;;;;10.10;8.87;;;3.00;99.90;;;;;;5052025;28;20208;-40
2021/03/18 00:22:54;;;;;;;11.07;8.63;;;3.00;99.90;;;;;;5051847;28;20289;-40
2021/03/18 00:25:21;;;;;;;10.30;9.15;;;3.00;99.90;;;;;;5051812;28;20299;-41
2021/03/18 00:27:48;;;;;;;11.05;8.07;;;2.90;99.90;;;;;;5051143;28;20628;-41
2021/03/18 00:30:18;;;;;;;11.47;9.03;;;2.90;99.90;;;;;;5051696;28;20349;-40
2021/03/18 00:32:46;;;;;;;11.23;9.13;;;2.80;99.90;;;;;;5051594;28;20211;-40
2021/03/18 00:35:15;;;;;;;9.38;8.05;;;2.80;99.90;;;;;;5051694;28;20303;-40
2021/03/18 00:37:43;;;;;;;9.87;8.90;;;2.70;99.90;;;;;;5051574;28;20212;-40
2021/03/18 00:40:14;;;;;;;10.17;8.27;;;2.70;99.90;;;;;;5051640;28;20307;-40
2021/03/18 00:42:48;;;;;;;8.97;8.07;;;2.60;99.90;;;;;;5051595;28;20304;-40
2021/03/18 00:45:16;;;;;;;8.97;8.07;;;2.60;99.90;;;;;;5051455;28;20298;-41
2021/03/18 00:47:43;;;;;;;10.63;8.33;;;2.50;99.90;;;;;;5051458;28;20317;-40
2021/03/18 00:50:14;;;;;;;11.87;8.27;;;2.50;99.90;;;;;;5051853;28;20257;-39
2021/03/18 00:52:41;;;;;;;9.20;7.60;;;2.50;99.90;;;;;;5051424;28;20653;-39
2021/03/18 00:55:09;;;;;;;8.67;7.77;;;2.50;99.90;;;;;;5051518;28;20590;-40
2021/03/18 00:57:36;;;;;;;8.97;7.57;;;2.50;99.90;;;;;;5051388;28;20683;-41
2021/03/18 01:00:07;;;;;;;10.15;8.38;;;2.50;99.90;;;;;;5051412;28;20237;-41
2021/03/18 01:02:34;;;;;;;11.60;8.40;;;2.50;99.90;;;;;;5051480;28;20235;-40
2021/03/18 01:05:01;;;;;;;9.02;8.13;;;2.50;99.90;;;;;;5051467;28;20239;-40
2021/03/18 01:07:29;;;;;;;8.38;7.50;;;2.60;99.90;;;;;;5051133;28;20563;-41
2021/03/18 01:09:57;;;;;;;8.07;7.30;;;2.60;99.90;;;;;;5051163;28;20211;-40
2021/03/18 01:12:24;;;;;;;9.70;7.53;;;2.60;99.90;;;;;;5051152;28;20299;-40
2021/03/18 01:14:50;;;;;;;8.13;7.20;;;2.60;99.90;;;;;;5051103;28;20274;-41
2021/03/18 01:17:17;;;;;;;7.90;7.00;;;2.50;99.90;;;;;;5051268;28;20230;-39
2021/03/18 01:19:44;;;;;;;7.73;6.97;;;2.50;99.90;;;;;;5050927;28;20227;-40
2021/03/18 01:22:11;;;;;;;9.47;7.33;;;2.50;99.90;;;;;;5050853;28;20252;-40
2021/03/18 01:24:39;;;;;;;9.80;7.97;;;2.50;99.90;;;;;;5051284;28;20246;-40
2021/03/18 01:27:06;;;;;;;8.77;7.20;;;2.50;99.90;;;;;;5050760;28;20714;-40
2021/03/18 01:29:33;;;;;;;8.23;7.43;;;2.60;99.90;;;;;;5050948;28;20368;-40
2021/03/18 01:32:01;;;;;;;9.27;7.05;;;2.60;99.90;;;;;;5050982;28;20204;-40
2021/03/18 01:34:28;;;;;;;8.60;7.30;;;2.60;99.90;;;;;;5050806;28;20208;-39
2021/03/18 01:36:56;;;;;;;9.77;8.02;;;2.60;99.90;;;;;;5050844;28;20251;-40
2021/03/18 01:39:23;;;;;;;8.50;6.88;;;2.60;99.90;;;;;;5052108;28;20226;-40
2021/03/18 01:41:51;;;;;;;9.57;7.82;;;2.60;99.90;;;;;;5054932;28;20274;-41
2021/03/18 01:44:18;;;;;;;9.30;6.97;;;2.80;99.90;;;;;;5054885;28;20429;-40
2021/03/18 01:46:45;;;;;;;8.35;6.82;;;2.80;99.90;;;;;;5054730;28;20258;-40
2021/03/18 01:49:12;;;;;;;7.85;7.10;;;2.70;99.90;;;;;;5054660;28;20250;-40
2021/03/18 01:51:39;;;;;;;11.43;8.17;;;2.70;99.90;;;;;;5054980;28;20208;-40
2021/03/18 01:54:07;;;;;;;8.43;7.57;;;2.60;99.90;;;;;;5054781;28;20236;-39
2021/03/18 01:56:34;;;;;;;10.50;7.07;;;2.70;99.90;;;;;;5054805;28;20290;-39
2021/03/18 01:59:01;;;;;;;11.20;7.75;;;2.70;99.90;;;;;;5054521;28;20746;-40
2021/03/18 02:01:28;;;;;;;8.73;7.38;;;2.60;99.90;;;;;;5054591;28;20226;-41
2021/03/18 02:03:57;;;;;;;10.97;7.47;;;2.60;99.90;;;;;;5054395;28;20306;-40
2021/03/18 02:06:25;;;;;;;12.60;8.60;;;2.60;99.90;;;;;;5054733;28;20211;-40
2021/03/18 02:08:52;;;;;;;10.50;7.85;;;2.50;99.90;;;;;;5054557;28;20666;-39
2021/03/18 02:11:19;;;;;;;10.32;7.72;;;2.40;99.90;;;;;;5054266;28;20231;-39
2021/03/18 02:13:46;;;;;;;10.82;8.40;;;2.20;99.90;;;;;;5054363;28;20208;-39
2021/03/18 02:16:15;;;;;;;11.27;8.35;;;2.20;99.90;;;;;;5054268;28;20290;-39
2021/03/18 02:18:50;;;;;;;9.13;7.83;;;2.10;99.90;;;;;;5054399;28;20629;-40
2021/03/18 02:21:54;;;;;;;14.55;8.20;;;2.00;99.90;;;;;;5054361;28;20677;-39
2021/03/18 02:24:40;;;;;;;10.82;8.10;;;2.00;99.90;;;;;;5054152;28;20563;-39
2021/03/18 02:28:00;;;;;;;11.80;8.83;;;2.00;99.90;;;;;;5054295;28;20260;-39
2021/03/18 02:30:54;;;;;;;12.60;8.73;;;1.90;99.90;;;;;;5054286;28;20212;-41
2021/03/18 02:33:55;;;;;;;13.60;8.80;;;1.90;99.90;;;;;;5054155;28;20212;-39
2021/03/18 02:36:27;;;;;;;10.33;8.40;;;1.90;99.90;;;;;;5054318;28;20211;-39
2021/03/18 02:38:58;;;;;;;11.15;8.63;;;1.90;99.90;;;;;;5054262;28;20239;-39
2021/03/18 02:41:30;;;;;;;13.43;9.85;;;2.00;99.90;;;;;;5054134;28;20231;-40
2021/03/18 02:44:02;;;;;;;11.98;10.25;;;2.00;99.90;;;;;;5054345;28;20216;-39
2021/03/18 02:46:29;;;;;;;12.63;9.80;;;2.10;99.90;;;;;;5054007;28;20244;-39
2021/03/18 02:49:01;;;;;;;14.87;9.87;;;2.10;99.90;;;;;;5053851;28;20271;-39
2021/03/18 02:51:32;;;;;;;14.00;10.73;;;2.20;99.90;;;;;;5053162;28;20693;-39
2021/03/18 02:54:04;;;;;;;14.63;10.17;;;2.20;99.90;;;;;;5053774;28;20254;-40
2021/03/18 02:56:32;;;;;;;13.00;10.13;;;2.30;99.90;;;;;;5054071;28;20295;-39
2021/03/18 02:59:02;;;;;;;13.75;9.85;;;2.30;99.90;;;;;;5053727;28;20235;-40
2021/03/18 03:01:30;;;;;;;14.00;10.27;;;2.30;99.90;;;;;;5053770;28;20538;-40
2021/03/18 03:04:00;;;;;;;15.55;10.63;;;2.30;99.90;;;;;;5053706;28;20231;-40
2021/03/18 03:06:30;;;;;;;14.57;11.20;;;2.30;99.90;;;;;;5053800;28;20212;-40
2021/03/18 03:09:00;;;;;;;15.05;11.10;;;2.30;99.90;;;;;;5053819;28;20636;-39
2021/03/18 03:11:27;;;;;;;14.37;10.60;;;2.30;99.90;;;;;;5053600;28;20298;-40
2021/03/18 03:13:56;;;;;;;15.95;10.68;;;2.30;99.90;;;;;;5053461;28;20303;-39
2021/03/18 03:16:24;;;;;;;15.63;11.68;;;2.30;99.90;;;;;;5053541;28;20208;-39
2021/03/18 03:18:52;;;;;;;13.85;10.18;;;2.30;99.90;;;;;;5053271;28;20215;-39
2021/03/18 03:21:22;;;;;;;13.32;10.65;;;2.40;99.90;;;;;;5053249;28;20375;-39
2021/03/18 03:23:51;;;;;;;15.82;10.95;;;2.40;99.90;;;;;;5053431;28;20215;-39
2021/03/18 03:26:20;;;;;;;14.20;11.30;;;2.40;99.90;;;;;;5053401;28;20236;-40
2021/03/18 03:28:48;;;;;;;14.85;10.82;;;2.40;99.90;;;;;;5053071;28;20232;-39
2021/03/18 03:31:16;;;;;;;16.00;10.73;;;2.30;99.90;;;;;;5053170;28;20303;-40
2021/03/18 03:33:55;;;;;;;15.80;10.70;;;2.30;99.90;;;;;;5053341;28;20285;-40
2021/03/18 03:36:23;;;;;;;16.85;11.50;;;2.30;99.90;;;;;;5052917;28;20212;-39
2021/03/18 03:38:51;;;;;;;13.68;11.27;;;2.30;99.90;;;;;;5052857;28;20627;-39
2021/03/18 03:41:18;;;;;;;13.97;9.90;;;2.20;99.90;;;;;;5052876;28;20255;-39
2021/03/18 03:43:45;;;;;;;14.43;11.13;;;2.20;99.90;;;;;;5052817;28;20208;-40
2021/03/18 03:46:12;;;;;;;18.53;11.87;;;2.20;99.90;;;;;;5053221;28;20211;-39
2021/03/18 03:48:39;;;;;;;15.87;11.10;;;2.20;99.90;;;;;;5052771;28;20535;-39
2021/03/18 03:51:06;;;;;;;17.73;11.83;;;2.20;99.90;;;;;;5052916;28;20214;-40
2021/03/18 03:53:41;;;;;;;11.77;10.47;;;2.30;99.90;;;;;;5052651;28;20748;-40
2021/03/18 03:56:19;;;;;;;16.10;11.57;;;2.50;99.90;;;;;;5052897;28;20208;-40
2021/03/18 03:58:50;;;;;;;18.92;12.32;;;2.60;99.90;;;;;;5053500;28;20527;-40
2021/03/18 04:01:26;;;;;;;14.57;11.53;;;2.60;99.90;;;;;;5052839;28;20398;-40
2021/03/18 04:04:01;;;;;;;16.60;10.77;;;2.60;99.90;;;;;;5051658;28;20208;-40
2021/03/18 04:06:33;;;;;;;15.90;11.90;;;2.50;99.90;;;;;;5052929;28;20203;-40
2021/03/18 04:09:02;;;;;;;22.13;12.50;;;2.40;99.90;;;;;;5052462;28;20235;-40
2021/03/18 04:11:32;;;;;;;14.63;11.27;;;2.30;99.90;;;;;;5052720;28;20269;-40
2021/03/18 04:13:59;;;;;;;15.45;11.43;;;2.20;99.90;;;;;;5052445;28;20210;-41
2021/03/18 04:16:27;;;;;;;15.67;10.73;;;2.20;99.90;;;;;;5052428;28;20766;-41
2021/03/18 04:18:56;;;;;;;17.13;11.60;;;2.20;99.90;;;;;;5052465;28;20230;-40
2021/03/18 04:21:25;;;;;;;18.37;11.97;;;2.30;99.90;;;;;;5052247;28;20663;-41
2021/03/18 04:23:52;;;;;;;14.87;10.90;;;2.30;99.90;;;;;;5052489;28;20251;-41
2021/03/18 04:26:21;;;;;;;15.80;11.63;;;2.30;99.90;;;;;;5052244;28;20633;-40
2021/03/18 04:28:49;;;;;;;16.50;11.83;;;2.20;99.90;;;;;;5052193;28;20228;-40
2021/03/18 04:31:16;;;;;;;19.67;12.18;;;2.10;99.90;;;;;;5052155;28;20254;-40
2021/03/18 04:33:44;;;;;;;16.75;11.98;;;1.90;99.90;;;;;;5051894;28;20294;-40
2021/03/18 04:36:12;;;;;;;15.82;11.50;;;1.80;99.90;;;;;;5052231;28;20208;-41
2021/03/18 04:38:40;;;;;;;16.73;11.85;;;1.70;99.90;;;;;;5052211;28;20204;-40
2021/03/18 04:41:08;;;;;;;16.37;12.27;;;1.60;99.90;;;;;;5051949;28;20302;-40
2021/03/18 04:43:39;;;;;;;18.10;11.73;;;1.60;99.90;;;;;;5051658;28;20239;-40
2021/03/18 04:46:08;;;;;;;17.13;12.73;;;1.60;99.90;;;;;;5051772;28;20259;-41
2021/03/18 04:48:37;;;;;;;18.23;12.67;;;1.50;99.90;;;;;;5051799;28;20246;-41
2021/03/18 04:51:06;;;;;;;17.47;12.30;;;1.50;99.90;;;;;;5051925;28;20318;-42
2021/03/18 04:53:33;;;;;;;20.60;12.75;;;1.50;99.90;;;;;;5051897;28;20216;-41
2021/03/18 04:56:00;;;;;;;18.83;13.13;;;1.40;99.90;;;;;;5051803;28;20351;-40
2021/03/18 04:58:28;;;;;;;18.63;12.88;;;1.50;99.90;;;;;;5051478;28;20227;-41
2021/03/18 05:00:56;;;;;;;18.77;12.50;;;1.50;99.90;;;;;;5051179;28;20250;-40
2021/03/18 05:03:25;;;;;;;16.67;11.77;;;1.50;99.90;;;;;;5051125;28;20204;-40
2021/03/18 05:05:53;;;;;;;15.77;12.20;;;1.50;99.90;;;;;;5051473;28;20315;-39
2021/03/18 05:08:21;;;;;;;16.88;12.48;;;1.50;99.90;;;;;;5051081;28;20239;-40
2021/03/18 05:10:49;;;;;;;31.15;25.67;;;1.50;99.90;;;;;;5051365;28;20250;-41
2021/03/18 05:13:16;;;;;;;29.07;22.20;;;1.50;99.90;;;;;;5051425;28;20243;-41
2021/03/18 05:15:44;;;;;;;19.23;12.30;;;1.50;99.90;;;;;;5051014;28;20662;-40
2021/03/18 05:18:13;;;;;;;17.20;12.10;;;1.50;99.90;;;;;;5051672;28;20222;-40
2021/03/18 05:20:42;;;;;;;17.50;12.75;;;1.50;99.90;;;;;;5051462;28;20544;-39
2021/03/18 05:23:12;;;;;;;19.20;13.48;;;1.60;99.90;;;;;;5051484;28;20294;-39
2021/03/18 05:25:40;;;;;;;15.43;12.13;;;1.60;99.90;;;;;;5051166;28;20218;-38
2021/03/18 05:28:07;;;;;;;18.15;12.05;;;1.70;99.90;;;;;;5051118;28;20282;-38
2021/03/18 05:30:36;;;;;;;15.30;12.30;;;1.60;99.90;;;;;;5051245;28;20243;-38
2021/03/18 05:33:05;;;;;;;18.73;12.60;;;1.70;99.90;;;;;;5051496;28;20208;-38
2021/03/18 05:35:38;;;;;;;21.23;13.20;;;1.70;99.90;;;;;;5051454;28;20208;-38
2021/03/18 05:38:08;;;;;;;21.50;13.23;;;1.60;99.90;;;;;;5051389;28;20208;-38
2021/03/18 05:40:36;;;;;;;15.83;12.03;;;1.60;99.90;;;;;;5051322;28;20239;-39
2021/03/18 05:43:04;;;;;;;17.73;13.37;;;1.60;99.90;;;;;;5051473;28;20366;-39
2021/03/18 05:45:32;;;;;;;18.48;12.73;;;1.60;99.90;;;;;;5051194;28;20265;-39
2021/03/18 05:48:00;;;;;;;19.70;12.83;;;1.60;99.90;;;;;;5051001;28;20331;-40
2021/03/18 05:50:32;;;;;;;14.33;11.97;;;1.60;99.90;;;;;;5051240;28;20208;-39
2021/03/18 05:53:01;;;;;;;15.30;12.10;;;1.60;99.90;;;;;;5050883;28;20212;-39
2021/03/18 05:55:29;;;;;;;21.30;12.97;;;1.60;99.90;;;;;;5050930;28;20636;-40
2021/03/18 05:57:57;;;;;;;21.80;13.43;;;1.70;99.90;;;;;;5051244;28;20671;-41
2021/03/18 06:00:28;;;;;;;19.42;12.82;;;1.70;99.90;;;;;;5051144;28;20297;-44
2021/03/18 06:02:55;;;;;;;16.60;13.50;;;1.80;99.90;;;;;;5051054;28;20552;-42
2021/03/18 06:05:23;;;;;;;19.70;14.27;;;1.90;99.90;;;;;;5050957;28;20270;-41
2021/03/18 06:07:50;;;;;;;18.85;13.43;;;1.90;99.90;;;;;;5051159;28;20235;-40
2021/03/18 06:10:19;;;;;;;15.70;12.68;;;2.00;99.90;;;;;;5051068;28;20242;-40
2021/03/18 06:12:49;;;;;;;18.00;12.53;;;2.10;99.90;;;;;;5050983;28;20240;-40
2021/03/18 06:15:18;;;;;;;18.10;13.60;;;2.20;99.90;;;;;;5051054;28;20236;-40
2021/03/18 06:17:45;;;;;;;17.77;13.17;;;2.20;99.90;;;;;;5050996;28;20204;-40
2021/03/18 06:20:16;;;;;;;17.38;12.77;;;2.20;99.90;;;;;;5051412;28;20658;-40
2021/03/18 06:22:45;;;;;;;19.10;13.68;;;2.20;99.90;;;;;;5051105;28;20311;-41
2021/03/18 06:25:22;;;;;;;15.90;12.10;;;2.30;99.90;;;;;;5051013;28;20239;-40
2021/03/18 06:28:09;;;;;;;16.42;11.82;;;2.30;99.90;;;;;;5054007;28;20224;-40
2021/03/18 06:30:36;;;;;;;17.50;12.07;;;2.40;99.90;;;;;;5054424;28;20288;-43
2021/03/18 06:33:18;;;;;;;13.93;12.13;;;2.40;99.90;;;;;;5054450;28;20208;-38
2021/03/18 06:35:45;;;;;;;15.45;12.35;;;2.50;99.90;;;;;;5054202;28;20234;-38
2021/03/18 06:38:12;;;;;;;17.58;12.55;;;2.60;99.90;;;;;;5054204;28;20298;-38
2021/03/18 06:40:41;;;;;;;15.68;12.82;;;2.70;99.90;;;;;;5054108;28;20240;-39
2021/03/18 06:43:10;;;;;;;16.48;12.25;;;2.70;99.90;;;;;;5054234;28;20628;-39
2021/03/18 06:45:39;;;;;;;15.33;11.97;;;2.80;99.90;;;;;;5054280;28;20291;-38
2021/03/18 06:48:08;;;;;;;16.00;12.30;;;2.90;99.90;;;;;;5053920;28;20240;-47
2021/03/18 06:50:38;;;;;;;17.75;13.02;;;3.00;99.90;;;;;;5053949;28;20623;-39
2021/03/18 06:53:17;;;;;;;18.20;14.33;;;3.10;99.90;;;;;;5054031;28;20253;-39
2021/03/18 06:55:44;;;;;;;20.03;15.23;;;3.10;99.90;;;;;;5054096;28;20258;-41
2021/03/18 06:58:20;;;;;;;15.07;12.23;;;3.10;99.90;;;;;;5053991;28;20306;-40
2021/03/18 07:00:49;;;;;;;17.80;13.30;;;3.20;99.90;;;;;;5054114;28;20637;-41
2021/03/18 07:03:28;;;;;;;14.73;12.23;;;3.20;99.90;;;;;;5054035;28;20245;-41
2021/03/18 07:05:57;;;;;;;19.67;14.20;;;3.20;99.90;;;;;;5053752;28;20215;-43
2021/03/18 07:08:26;;;;;;;16.77;12.88;;;3.30;99.90;;;;;;5053819;28;20707;-44
2021/03/18 07:10:55;;;;;;;18.77;12.13;;;3.50;99.90;;;;;;5053987;28;20212;-42
2021/03/18 07:13:25;;;;;;;19.88;13.82;;;3.60;99.90;;;;;;5053703;28;20245;-42
2021/03/18 07:15:54;;;;;;;17.88;13.38;;;3.70;99.90;;;;;;5054030;28;20508;-42
2021/03/18 07:18:21;;;;;;;18.25;14.05;;;3.80;99.90;;;;;;5053406;28;20675;-42
2021/03/18 07:20:56;;;;;;;16.88;14.23;;;3.80;99.90;;;;;;5053680;28;20244;-42
2021/03/18 07:23:33;;;;;;;19.65;15.98;;;3.90;99.90;;;;;;5053536;28;20245;-44
2021/03/18 07:26:01;;;;;;;18.33;14.02;;;3.90;99.90;;;;;;5053483;28;20212;-42
2021/03/18 07:28:29;;;;;;;17.88;13.55;;;3.80;99.90;;;;;;5053330;28;20224;-41
2021/03/18 07:30:57;;;;;;;14.07;12.18;;;3.80;99.90;;;;;;5053152;28;20715;-42
2021/03/18 07:33:24;;;;;;;18.70;12.98;;;3.80;99.90;;;;;;5053296;28;20239;-42
2021/03/18 07:35:52;;;;;;;17.90;14.55;;;3.90;99.90;;;;;;5055921;28;20208;-42
2021/03/18 07:38:19;;;;;;;14.35;12.85;;;4.00;99.90;;;;;;5053011;28;20247;-42
2021/03/18 07:40:45;;;;;;;15.98;13.02;;;4.00;99.90;;;;;;5053085;28;20214;-41
2021/03/18 07:43:16;;;;;;;15.70;13.07;;;4.00;99.90;;;;;;5053031;28;20219;-41
2021/03/18 07:45:45;;;;;;;21.52;14.40;;;3.90;99.90;;;;;;5053036;28;20235;-42
2021/03/18 07:48:13;;;;;;;18.17;13.95;;;4.00;99.90;;;;;;5052484;28;20569;-42
2021/03/18 07:50:41;;;;;;;17.20;14.00;;;4.00;99.90;;;;;;5052694;28;20725;-42
2021/03/18 07:53:11;;;;;;;19.30;16.17;;;4.10;99.90;;;;;;5052284;28;20212;-42
2021/03/18 07:55:39;;;;;;;16.98;13.93;;;4.30;99.90;;;;;;5052332;28;20294;-41
2021/03/18 07:58:06;;;;;;;18.42;14.20;;;4.50;99.90;;;;;;5052414;28;20311;-42
2021/03/18 08:00:34;;;;;;;17.42;13.75;;;4.60;99.90;;;;;;5052484;28;20303;-42
2021/03/18 08:03:29;;;;;;;17.07;13.57;;;4.80;99.90;;;;;;5052668;28;20219;-43
2021/03/18 08:05:58;;;;;;;17.05;13.88;;;5.00;99.90;;;;;;5052104;28;20270;-44
2021/03/18 08:08:42;;;;;;;16.27;13.10;;;5.00;99.90;;;;;;5051882;28;20227;-41
2021/03/18 08:11:11;;;;;;;17.60;13.00;;;5.00;99.90;;;;;;5052272;28;20295;-41
2021/03/18 08:13:41;;;;;;;17.92;13.93;;;5.00;99.90;;;;;;5052148;28;20246;-41
2021/03/18 08:16:28;;;;;;;16.08;12.30;;;5.00;99.90;;;;;;5051903;28;20554;-41
2021/03/18 08:18:57;;;;;;;19.92;13.45;;;5.10;99.90;;;;;;5051845;28;20208;-41
2021/03/18 08:21:34;;;;;;;21.00;14.98;;;5.10;99.90;;;;;;5051902;28;20212;-41
2021/03/18 08:24:04;;;;;;;18.67;13.88;;;5.00;99.90;;;;;;5051966;28;20219;-40
2021/03/18 08:26:48;;;;;;;18.85;15.18;;;5.00;99.90;;;;;;5051933;28;20224;-41
2021/03/18 08:29:21;;;;;;;20.65;15.15;;;5.10;99.90;;;;;;5051712;28;20662;-40
2021/03/18 08:31:53;;;;;;;18.27;14.90;;;5.20;99.90;;;;;;5052050;28;20238;-41
2021/03/18 08:34:40;;;;;;;19.00;13.50;;;5.30;99.90;;;;;;5051915;28;20375;-40
2021/03/18 08:37:08;;;;;;;18.92;14.93;;;5.40;99.90;;;;;;5051611;28;20562;-40
2021/03/18 08:39:46;;;;;;;16.90;13.88;;;5.50;99.90;;;;;;5051724;28;20622;-40
2021/03/18 08:42:44;;;;;;;18.95;14.13;;;5.60;99.90;;;;;;5051996;28;20299;-40
2021/03/18 08:45:40;;;;;;;20.35;14.02;;;5.70;99.90;;;;;;5051532;28;20662;-39
2021/03/18 08:48:18;;;;;;;18.90;14.48;;;5.90;99.90;;;;;;5047246;28;20243;-41
2021/03/18 08:50:58;;;;;;;16.65;14.27;;;5.90;99.90;;;;;;5051323;28;20215;-39
2021/03/18 08:53:37;;;;;;;18.10;13.60;;;5.90;99.90;;;;;;5051656;28;20531;-40
2021/03/18 08:56:06;;;;;;;22.15;14.63;;;6.10;99.90;;;;;;5051642;28;20579;-39
2021/03/18 08:58:55;;;;;;;15.98;12.45;;;6.10;99.90;;;;;;5051751;28;20208;-39
2021/03/18 09:01:24;;;;;;;15.52;12.50;;;6.10;99.90;;;;;;5051509;28;20310;-39
2021/03/18 09:03:57;;;;;;;16.50;12.35;;;6.00;99.90;;;;;;5051668;28;20221;-39
2021/03/18 09:06:30;;;;;;;14.05;11.07;;;6.10;99.80;;;;;;5051316;28;20690;-39
2021/03/18 09:08:59;;;;;;;15.17;12.57;;;6.10;99.70;;;;;;5051619;28;20667;-39
2021/03/18 09:11:27;;;;;;;14.95;12.27;;;6.30;99.10;;;;;;5051587;28;20701;-39
2021/03/18 09:13:54;;;;;;;19.13;12.60;;;6.50;98.70;;;;;;5051890;28;20204;-39
2021/03/18 09:16:23;;;;;;;15.05;12.30;;;6.60;98.10;;;;;;5051548;28;20253;-39
2021/03/18 09:19:01;;;;;;;14.27;12.05;;;6.50;98.20;;;;;;5051568;28;20233;-39
2021/03/18 09:21:38;;;;;;;13.45;10.65;;;6.40;97.90;;;;;;5051628;28;20192;-40
2021/03/18 09:24:07;;;;;;;13.18;11.13;;;6.30;98.00;;;;;;5051345;28;20257;-38
2021/03/18 09:26:34;;;;;;;16.60;11.30;;;6.30;98.10;;;;;;5051365;28;20228;-39
2021/03/18 09:29:01;;;;;;;15.55;12.82;;;6.30;97.60;;;;;;5051077;28;20592;-38
2021/03/18 09:31:28;;;;;;;12.48;10.23;;;6.10;97.70;;;;;;5051422;28;20553;-39
2021/03/18 09:33:57;;;;;;;13.00;11.63;;;6.00;97.80;;;;;;5051474;28;20538;-39
2021/03/18 09:36:26;;;;;;;12.88;9.98;;;5.80;97.90;;;;;;5051167;28;20545;-41
2021/03/18 09:39:00;;;;;;;15.50;11.52;;;5.80;98.30;;;;;;5050903;28;20219;-40
2021/03/18 09:41:31;;;;;;;10.93;9.82;;;5.80;98.10;;;;;;5051467;28;20208;-40
2021/03/18 09:44:11;;;;;;;13.77;11.05;;;5.90;98.00;;;;;;5051076;28;20216;-40
2021/03/18 09:46:39;;;;;;;12.48;11.02;;;6.00;97.60;;;;;;5051280;28;20235;-41
2021/03/18 09:49:07;;;;;;;11.02;9.60;;;6.10;97.40;;;;;;5050932;28;20267;-40
2021/03/18 09:51:37;;;;;;;12.10;10.35;;;6.20;97.30;;;;;;5051228;28;20203;-40
2021/03/18 09:54:08;;;;;;;13.30;11.43;;;6.50;96.70;;;;;;5051087;28;20299;-40
2021/03/18 09:56:37;;;;;;;14.07;12.27;;;6.60;96.50;;;;;;5050949;28;20207;-38
2021/03/18 09:59:06;;;;;;;13.25;10.52;;;6.80;96.20;;;;;;5050989;28;20311;-38
2021/03/18 10:01:34;;;;;;;10.50;8.57;;;7.00;95.50;;;;;;5054209;28;20220;-38
2021/03/18 10:04:04;;;;;;;11.57;8.70;;;7.10;94.90;;;;;;5054798;28;20208;-39
2021/03/18 10:06:34;;;;;;;11.13;8.95;;;7.40;94.70;;;;;;5054768;28;20208;-39
2021/03/18 10:09:21;;;;;;;12.75;9.52;;;7.80;94.30;;;;;;5054270;28;20377;-39
2021/03/18 10:11:50;;;;;;;12.32;9.20;;;8.10;93.60;;;;;;5054685;28;20287;-39
2021/03/18 10:14:18;;;;;;;10.88;9.73;;;8.30;93.30;;;;;;5054404;28;20240;-40
2021/03/18 10:17:04;;;;;;;11.07;8.95;;;8.50;92.70;;;;;;5054437;28;20322;-40
2021/03/18 10:19:33;;;;;;;17.88;8.55;;;8.40;92.50;;;;;;5054219;28;20311;-40
2021/03/18 10:22:02;;;;;;;11.60;9.07;;;8.20;92.60;;;;;;5054588;28;20211;-39
2021/03/18 10:24:30;;;;;;;14.52;10.23;;;8.00;92.80;;;;;;5054408;28;20291;-39
2021/03/18 10:27:10;;;;;;;13.77;9.85;;;7.70;92.80;;;;;;5054315;28;20248;-40
2021/03/18 10:29:38;;;;;;;8.93;8.00;;;7.40;93.10;;;;;;5054172;28;20259;-40
2021/03/18 10:32:10;;;;;;;9.50;8.20;;;7.10;93.80;;;;;;5054051;28;20292;-40
2021/03/18 10:34:37;;;;;;;10.15;8.20;;;6.90;94.00;;;;;;5054006;28;20218;-40
2021/03/18 10:37:24;;;;;;;10.38;8.27;;;6.70;94.20;;;;;;5054042;28;20208;-40
2021/03/18 10:40:07;;;;;;;8.40;7.10;;;6.70;94.50;;;;;;5053954;28;20676;-40
2021/03/18 10:42:34;;;;;;;8.93;7.55;;;6.70;94.00;;;;;;5054032;28;20686;-40
2021/03/18 10:45:13;;;;;;;8.93;7.97;;;6.60;93.80;;;;;;5053884;28;20220;-39
2021/03/18 10:47:41;;;;;;;12.15;8.80;;;6.50;93.80;;;;;;5053103;28;20693;-38
2021/03/18 10:50:12;;;;;;;15.00;10.23;;;6.40;93.80;;;;;;5053533;28;20228;-39
2021/03/18 10:52:40;;;;;;;11.32;8.65;;;6.30;93.90;;;;;;5053482;28;20582;-39
2021/03/18 10:55:09;;;;;;;10.93;8.40;;;6.20;94.00;;;;;;5053188;28;20211;-38
2021/03/18 10:57:36;;;;;;;11.10;9.35;;;6.20;94.10;;;;;;5053791;28;20584;-38
2021/03/18 11:00:07;;;;;;;12.33;9.30;;;6.20;93.50;;;;;;5053532;28;20627;-39
2021/03/18 11:02:39;;;;;;;12.30;9.20;;;6.30;93.80;;;;;;5053576;28;20219;-39
2021/03/18 11:05:07;;;;;;;11.95;9.68;;;6.40;93.50;;;;;;5052961;28;20458;-39
2021/03/18 11:07:34;;;;;;;11.13;9.25;;;6.80;92.90;;;;;;5053326;28;20247;-39
2021/03/18 11:10:11;;;;;;;10.70;9.27;;;7.10;92.20;;;;;;5053355;28;20232;-39
2021/03/18 11:12:39;;;;;;;10.40;8.90;;;7.40;91.70;;;;;;5052898;28;20211;-39
2021/03/18 11:15:08;;;;;;;10.60;9.50;;;7.70;91.20;;;;;;5053325;28;20681;-39
2021/03/18 11:17:36;;;;;;;9.20;8.30;;;8.00;91.30;;;;;;5053357;28;20242;-40
2021/03/18 11:20:13;;;;;;;11.55;9.70;;;8.10;91.20;;;;;;5053326;28;20208;-40
2021/03/18 11:22:40;;;;;;;10.65;8.98;;;8.10;91.00;;;;;;5053510;28;20248;-39
2021/03/18 11:25:10;;;;;;;10.85;9.68;;;8.00;91.20;;;;;;5053264;28;20347;-39
2021/03/18 11:27:37;;;;;;;9.38;8.18;;;7.90;91.20;;;;;;5052989;28;20252;-40
2021/03/18 11:30:07;;;;;;;9.35;8.23;;;7.90;91.00;;;;;;5052910;28;20236;-39
2021/03/18 11:32:34;;;;;;;10.85;8.25;;;7.60;90.80;;;;;;5052933;28;20239;-40
2021/03/18 11:35:02;;;;;;;10.13;8.98;;;7.30;91.20;;;;;;5052918;28;20208;-38
2021/03/18 11:37:29;;;;;;;13.45;10.50;;;7.10;91.80;;;;;;5052797;28;20243;-40
2021/03/18 11:39:57;;;;;;;10.63;8.65;;;6.90;92.10;;;;;;5053282;28;20290;-41
2021/03/18 11:42:25;;;;;;;10.88;7.95;;;6.80;92.30;;;;;;5053419;28;20281;-41
2021/03/18 11:44:52;;;;;;;10.60;8.57;;;6.60;92.70;;;;;;5053022;28;20655;-42
2021/03/18 11:47:19;;;;;;;11.20;9.02;;;6.40;93.00;;;;;;5052991;28;20246;-43
2021/03/18 11:49:46;;;;;;;9.02;8.20;;;6.40;93.10;;;;;;5052914;28;20239;-41
2021/03/18 11:52:13;;;;;;;10.50;9.43;;;6.50;93.00;;;;;;5053043;28;20694;-40
2021/03/18 11:54:40;;;;;;;10.13;8.27;;;6.50;92.80;;;;;;5052615;28;20647;-41
2021/03/18 11:57:07;;;;;;;11.45;8.75;;;6.60;92.70;;;;;;5052539;28;20208;-41
2021/03/18 11:59:36;;;;;;;8.73;7.82;;;6.80;92.50;;;;;;5053420;28;20287;-39
2021/03/18 12:02:03;;;;;;;10.60;9.60;;;6.90;92.50;;;;;;5053002;28;20208;-40
2021/03/18 12:04:31;;;;;;;13.13;11.77;;;7.00;92.00;;;;;;5053035;28;20306;-40
2021/03/18 12:06:58;;;;;;;8.85;7.95;;;7.10;91.40;;;;;;5052052;28;20238;-40
2021/03/18 12:09:25;;;;;;;16.90;11.35;;;7.20;91.30;;;;;;5052660;28;20252;-41
2021/03/18 12:11:52;;;;;;;8.55;6.93;;;7.10;91.00;;;;;;5053308;28;20227;-40
2021/03/18 12:14:19;;;;;;;6.18;5.57;;;7.00;90.90;;;;;;5053334;28;20265;-40
2021/03/18 12:16:47;;;;;;;6.88;5.88;;;6.70;91.10;;;;;;5053512;28;20204;-40
2021/03/18 12:19:14;;;;;;;8.75;7.68;;;6.40;92.00;;;;;;5052352;28;20212;-40
2021/03/18 12:21:41;;;;;;;7.35;6.55;;;6.20;92.50;;;;;;5051826;28;20315;-40
2021/03/18 12:24:09;;;;;;;7.78;6.97;;;6.10;92.70;;;;;;5051307;28;20583;-41
2021/03/18 12:26:39;;;;;;;8.13;7.22;;;6.10;92.90;;;;;;5051588;28;20544;-41
2021/03/18 12:29:06;;;;;;;6.33;5.67;;;6.10;93.30;;;;;;5051819;28;20314;-40
2021/03/18 12:31:33;;;;;;;6.97;5.97;;;6.00;93.50;;;;;;5052245;28;20247;-39
2021/03/18 12:34:02;;;;;;;8.40;6.63;;;6.10;93.50;;;;;;5051991;28;20222;-40
2021/03/18 12:36:29;;;;;;;7.15;6.45;;;6.10;93.70;;;;;;5051823;28;20243;-40
2021/03/18 12:38:56;;;;;;;8.03;7.13;;;6.10;93.60;;;;;;5051899;28;20204;-40
2021/03/18 12:41:30;;;;;;;7.90;7.00;;;6.10;93.60;;;;;;5052150;28;20216;-41
2021/03/18 12:43:57;;;;;;;12.70;9.33;;;6.30;94.00;;;;;;5052182;28;20301;-40
2021/03/18 12:46:24;;;;;;;7.93;6.63;;;6.50;94.10;;;;;;5051599;28;20204;-41
2021/03/18 12:48:52;;;;;;;9.70;6.93;;;6.90;94.10;;;;;;5051242;28;20240;-41
2021/03/18 12:51:21;;;;;;;8.23;6.95;;;7.20;93.90;;;;;;5051643;28;20212;-41
2021/03/18 12:53:48;;;;;;;8.02;6.93;;;7.50;93.90;;;;;;5051597;28;20243;-41
2021/03/18 12:56:15;;;;;;;7.72;6.07;;;7.70;93.60;;;;;;5051653;28;20243;-41
2021/03/18 12:58:42;;;;;;;6.38;5.75;;;7.90;93.70;;;;;;5051543;28;20302;-41